Time;durP1;ratioP1;P1;durP2;ratioP2;P2;SDS_P1;SDS_P2;PMS_P1;PMS_P2;Temp;Humidity;BMP_temperature;BMP_pressure;BME280_temperature;BME280_humidity;BME280_pressure;Samples;Min_cycle;Max_cycle;Signal;HPM_P1;HPM_P2
2022/03/27 00:00:28;;;;;;;8.18;6.18;;;12.80;99.90;;;;;;5026382;28;20231;-77
2022/03/27 00:02:57;;;;;;;6.97;5.07;;;12.50;99.90;;;;;;5024816;28;20203;-77
2022/03/27 00:05:24;;;;;;;8.27;5.75;;;12.40;99.90;;;;;;5025005;28;20664;-77
2022/03/27 00:07:51;;;;;;;7.47;6.38;;;12.50;99.90;;;;;;5022866;28;20199;-77
2022/03/27 00:10:19;;;;;;;7.57;5.80;;;12.40;99.90;;;;;;5024418;28;20242;-77
2022/03/27 00:12:46;;;;;;;7.10;5.82;;;12.50;99.90;;;;;;5023351;28;20205;-77
2022/03/27 00:15:13;;;;;;;7.18;5.68;;;12.50;99.90;;;;;;5019725;28;20200;-77
2022/03/27 00:17:41;;;;;;;7.90;6.82;;;12.30;99.90;;;;;;5031972;28;20204;-77
2022/03/27 00:20:12;;;;;;;6.35;5.57;;;12.30;99.90;;;;;;5023231;28;20623;-77
2022/03/27 00:22:40;;;;;;;7.55;6.20;;;12.40;99.90;;;;;;5022652;28;20207;-77
2022/03/27 00:25:08;;;;;;;7.72;5.95;;;12.40;99.90;;;;;;5025291;28;20551;-77
2022/03/27 00:27:36;;;;;;;7.00;5.70;;;12.40;99.90;;;;;;5024210;28;20202;-77
2022/03/27 00:30:04;;;;;;;8.00;5.55;;;12.40;99.90;;;;;;5024901;28;20700;-77
2022/03/27 00:32:31;;;;;;;9.13;5.65;;;12.30;99.90;;;;;;5030213;28;20586;-77
2022/03/27 00:34:59;;;;;;;7.72;5.82;;;12.20;99.90;;;;;;5031452;28;20203;-77
2022/03/27 00:37:29;;;;;;;7.45;5.75;;;12.30;99.90;;;;;;5028141;28;20569;-77
2022/03/27 00:39:56;;;;;;;7.43;5.47;;;12.30;99.90;;;;;;5030666;28;20688;-77
2022/03/27 00:42:23;;;;;;;8.38;5.75;;;12.40;99.90;;;;;;5026699;28;20209;-77
2022/03/27 00:44:51;;;;;;;6.95;5.95;;;12.60;99.90;;;;;;5030831;28;20199;-77
2022/03/27 00:47:18;;;;;;;7.53;6.18;;;12.70;99.90;;;;;;5031371;28;20214;-77
2022/03/27 00:49:45;;;;;;;7.25;6.10;;;12.50;99.90;;;;;;5029894;28;20596;-77
2022/03/27 00:52:13;;;;;;;8.40;5.97;;;12.40;99.90;;;;;;5023668;28;20214;-77
2022/03/27 00:54:41;;;;;;;6.70;5.78;;;12.30;99.90;;;;;;5023614;28;20203;-77
2022/03/27 00:57:09;;;;;;;7.57;5.75;;;12.30;99.90;;;;;;5028917;28;20218;-77
2022/03/27 00:59:36;;;;;;;7.05;6.35;;;12.40;99.90;;;;;;5024848;28;20215;-77
2022/03/27 01:02:04;;;;;;;7.55;6.72;;;12.60;99.90;;;;;;5032749;28;20202;-77
2022/03/27 01:04:31;;;;;;;9.52;6.68;;;12.70;99.90;;;;;;5027102;28;20227;-77
2022/03/27 01:06:59;;;;;;;7.22;6.50;;;12.80;99.90;;;;;;5028498;28;20215;-77
2022/03/27 01:09:37;;;;;;;8.38;6.85;;;12.90;99.90;;;;;;5027353;28;20239;-77
2022/03/27 01:12:15;;;;;;;7.47;6.60;;;12.90;99.90;;;;;;5026295;28;20201;-77
2022/03/27 01:14:44;;;;;;;8.70;7.00;;;12.90;99.90;;;;;;5026389;28;20688;-77
2022/03/27 01:17:16;;;;;;;9.88;6.90;;;12.80;99.90;;;;;;5027598;28;20199;-77
2022/03/27 01:19:45;;;;;;;8.20;6.82;;;12.60;99.90;;;;;;5025485;28;20226;-77
2022/03/27 01:22:14;;;;;;;9.27;6.80;;;12.40;99.90;;;;;;5028270;28;20211;-77
2022/03/27 01:24:42;;;;;;;9.93;7.93;;;12.30;99.90;;;;;;5023119;28;20183;-77
2022/03/27 01:27:09;;;;;;;10.27;7.35;;;12.30;99.90;;;;;;5032036;28;20206;-77
2022/03/27 01:29:37;;;;;;;11.82;7.80;;;12.40;99.90;;;;;;5026874;28;20219;-77
2022/03/27 01:32:06;;;;;;;10.40;7.70;;;12.30;99.90;;;;;;5033685;28;20199;-77
2022/03/27 01:34:36;;;;;;;9.50;7.70;;;12.50;99.90;;;;;;5025192;28;20204;-77
2022/03/27 01:37:10;;;;;;;10.07;8.18;;;12.60;99.90;;;;;;5031731;28;20194;-77
2022/03/27 01:39:40;;;;;;;10.45;7.78;;;12.60;99.90;;;;;;5024437;28;20688;-77
2022/03/27 01:42:08;;;;;;;9.23;8.32;;;12.50;99.90;;;;;;5025163;28;20199;-77
2022/03/27 01:44:35;;;;;;;9.85;8.85;;;12.60;99.90;;;;;;5022188;28;20199;-77
2022/03/27 01:47:03;;;;;;;9.35;8.35;;;12.40;99.90;;;;;;5028543;28;20206;-77
2022/03/27 01:49:32;;;;;;;9.43;8.48;;;12.30;99.90;;;;;;5023922;28;20215;-77
2022/03/27 01:51:59;;;;;;;10.30;8.63;;;12.40;99.90;;;;;;5028257;28;20206;-77
2022/03/27 01:54:26;;;;;;;11.73;9.98;;;12.50;99.90;;;;;;5038923;28;20565;-77
2022/03/27 01:56:55;;;;;;;10.60;8.82;;;12.50;99.90;;;;;;5024578;28;20222;-77
2022/03/27 01:59:22;;;;;;;9.98;8.98;;;12.50;99.90;;;;;;5023370;28;20235;-77
2022/03/27 02:01:50;;;;;;;9.98;8.98;;;12.40;99.90;;;;;;5024830;28;20671;-77
2022/03/27 02:04:18;;;;;;;10.95;9.85;;;12.40;99.90;;;;;;5017348;28;20212;-77
2022/03/27 02:06:45;;;;;;;10.63;9.43;;;12.40;99.90;;;;;;5023649;28;20588;-78
2022/03/27 02:09:13;;;;;;;11.90;9.48;;;12.20;99.90;;;;;;5022144;28;20227;-77
2022/03/27 02:11:41;;;;;;;11.48;9.60;;;12.10;99.90;;;;;;5023830;28;20560;-77
2022/03/27 02:14:10;;;;;;;10.85;9.75;;;12.00;99.90;;;;;;5027650;28;20199;-77
2022/03/27 02:16:38;;;;;;;13.30;10.65;;;12.20;99.90;;;;;;5027178;28;20261;-77
2022/03/27 02:19:08;;;;;;;11.25;10.15;;;12.00;99.90;;;;;;5030055;28;20223;-77
2022/03/27 02:21:35;;;;;;;12.93;11.35;;;12.00;99.90;;;;;;5027100;28;20203;-77
2022/03/27 02:24:03;;;;;;;12.48;11.27;;;12.10;99.90;;;;;;5026994;28;20558;-75
2022/03/27 02:26:31;;;;;;;12.27;11.07;;;12.00;99.90;;;;;;5027063;28;20195;-75
2022/03/27 02:28:58;;;;;;;15.13;12.35;;;11.90;99.90;;;;;;5023006;28;20589;-75
2022/03/27 02:31:27;;;;;;;13.05;11.77;;;12.10;99.90;;;;;;5019574;28;20208;-75
2022/03/27 02:33:55;;;;;;;13.20;11.88;;;12.10;99.90;;;;;;5030844;28;20199;-75
2022/03/27 02:36:22;;;;;;;12.57;11.27;;;12.00;99.90;;;;;;5031919;28;20203;-77
2022/03/27 02:38:49;;;;;;;12.63;11.52;;;12.10;99.90;;;;;;5021640;28;20225;-77
2022/03/27 02:41:17;;;;;;;13.45;12.13;;;12.10;99.90;;;;;;5044014;28;20214;-77
2022/03/27 02:43:44;;;;;;;13.43;12.15;;;12.00;99.90;;;;;;5029618;28;21543;-77
2022/03/27 02:46:11;;;;;;;14.82;13.00;;;11.90;99.90;;;;;;5025761;28;20191;-77
2022/03/27 02:48:40;;;;;;;13.60;12.20;;;11.90;99.90;;;;;;5024854;28;20214;-77
2022/03/27 02:51:08;;;;;;;15.13;13.63;;;11.80;99.90;;;;;;5023016;28;20186;-77
2022/03/27 02:53:35;;;;;;;14.07;12.57;;;11.80;99.90;;;;;;5030065;28;20217;-77
2022/03/27 02:56:05;;;;;;;15.63;13.85;;;11.80;99.90;;;;;;5028618;28;20198;-77
2022/03/27 02:58:32;;;;;;;15.50;13.50;;;11.90;99.90;;;;;;5038109;28;20221;-77
2022/03/27 03:01:00;;;;;;;15.93;14.32;;;11.80;99.90;;;;;;5028910;28;20199;-77
2022/03/27 03:03:27;;;;;;;14.07;12.68;;;11.90;99.90;;;;;;5029727;28;20656;-78
2022/03/27 03:05:59;;;;;;;15.95;14.25;;;12.00;99.90;;;;;;5031432;28;20198;-78
2022/03/27 03:08:28;;;;;;;15.97;14.40;;;11.90;99.90;;;;;;5027484;28;20202;-77
2022/03/27 03:10:56;;;;;;;16.65;14.90;;;11.80;99.90;;;;;;5026972;28;20195;-77
2022/03/27 03:13:24;;;;;;;16.15;14.68;;;11.70;99.90;;;;;;5025434;28;20223;-77
2022/03/27 03:15:52;;;;;;;17.23;15.50;;;11.60;99.90;;;;;;5040547;28;20191;-78
2022/03/27 03:18:20;;;;;;;17.35;15.30;;;11.10;99.90;;;;;;5022316;28;20211;-78
2022/03/27 03:20:47;;;;;;;17.55;15.80;;;11.20;99.90;;;;;;5026272;28;20222;-79
2022/03/27 03:23:16;;;;;;;17.20;14.98;;;11.00;99.90;;;;;;5030866;28;20261;-78
2022/03/27 03:25:43;;;;;;;17.77;15.93;;;11.20;99.90;;;;;;5044335;28;20203;-78
2022/03/27 03:28:11;;;;;;;19.40;17.13;;;11.30;99.90;;;;;;5030033;28;20199;-78
2022/03/27 03:30:38;;;;;;;18.67;16.73;;;11.40;99.90;;;;;;5023115;28;20217;-78
2022/03/27 03:33:05;;;;;;;21.47;18.43;;;11.30;99.90;;;;;;5025432;28;20195;-78
2022/03/27 03:35:33;;;;;;;19.87;17.77;;;11.40;99.90;;;;;;5022115;28;20316;-78
2022/03/27 03:38:00;;;;;;;20.67;18.45;;;11.30;99.90;;;;;;5025604;28;20198;-78
2022/03/27 03:40:29;;;;;;;21.17;18.97;;;11.00;99.90;;;;;;5024379;28;20227;-78
2022/03/27 03:42:56;;;;;;;24.90;19.63;;;10.90;99.90;;;;;;5029591;28;20207;-76
2022/03/27 03:45:24;;;;;;;21.17;18.97;;;10.60;99.90;;;;;;5024343;28;20202;-75
2022/03/27 03:47:51;;;;;;;24.40;19.83;;;10.80;99.90;;;;;;5037438;28;20657;-75
2022/03/27 03:50:18;;;;;;;21.93;19.00;;;10.80;99.90;;;;;;5024304;28;20234;-75
2022/03/27 03:52:46;;;;;;;22.03;18.87;;;10.90;99.90;;;;;;5022497;28;20202;-75
2022/03/27 03:55:13;;;;;;;21.57;19.00;;;10.90;99.90;;;;;;5025081;28;20217;-75
2022/03/27 03:57:42;;;;;;;21.77;19.53;;;11.00;99.90;;;;;;5025643;28;20187;-75
2022/03/27 04:00:10;;;;;;;22.73;18.97;;;11.10;99.90;;;;;;5025273;28;20226;-77
2022/03/27 04:02:40;;;;;;;23.63;20.03;;;11.20;99.90;;;;;;5028193;28;20213;-78
2022/03/27 04:05:09;;;;;;;24.97;20.00;;;11.30;99.90;;;;;;5029681;28;20195;-77
2022/03/27 04:07:36;;;;;;;21.52;19.27;;;11.20;99.90;;;;;;5043025;28;20673;-77
2022/03/27 04:10:04;;;;;;;20.30;18.20;;;11.30;99.90;;;;;;5030011;28;20214;-77
2022/03/27 04:12:32;;;;;;;22.98;20.50;;;11.40;99.90;;;;;;5031360;28;20195;-77
2022/03/27 04:15:01;;;;;;;23.17;19.42;;;11.50;99.90;;;;;;5033876;28;20183;-77
2022/03/27 04:17:28;;;;;;;22.50;20.17;;;11.20;99.90;;;;;;5028097;28;20279;-77
2022/03/27 04:19:56;;;;;;;21.35;18.15;;;11.40;99.90;;;;;;5029799;28;20225;-77
2022/03/27 04:22:23;;;;;;;22.27;19.85;;;11.50;99.90;;;;;;5027647;28;20203;-77
2022/03/27 04:24:50;;;;;;;20.65;18.25;;;11.60;99.90;;;;;;5031234;28;20206;-77
2022/03/27 04:27:18;;;;;;;21.85;19.30;;;11.70;99.90;;;;;;5028190;28;20207;-77
2022/03/27 04:29:45;;;;;;;23.40;19.60;;;11.80;99.90;;;;;;5030027;28;20230;-77
2022/03/27 04:32:17;;;;;;;23.80;19.92;;;11.60;99.90;;;;;;5026559;28;20200;-77
2022/03/27 04:34:44;;;;;;;21.10;18.80;;;11.70;99.90;;;;;;5035985;28;20645;-77
2022/03/27 04:37:11;;;;;;;22.33;19.98;;;11.70;99.90;;;;;;5035622;28;20175;-77
2022/03/27 04:39:38;;;;;;;21.30;18.98;;;11.70;99.90;;;;;;5033943;28;20711;-77
2022/03/27 04:42:06;;;;;;;22.05;19.67;;;11.60;99.90;;;;;;5031742;28;20211;-77
2022/03/27 04:44:34;;;;;;;21.08;18.83;;;11.60;99.90;;;;;;5028062;28;20209;-77
2022/03/27 04:47:01;;;;;;;24.08;21.38;;;11.60;99.90;;;;;;5027720;28;20195;-77
2022/03/27 04:49:30;;;;;;;23.92;21.40;;;11.60;99.90;;;;;;5030965;28;20227;-77
2022/03/27 04:52:07;;;;;;;25.02;20.52;;;11.60;99.90;;;;;;5030618;28;20645;-77
2022/03/27 04:54:34;;;;;;;22.55;20.15;;;11.60;99.90;;;;;;5027889;28;20199;-77
2022/03/27 04:57:02;;;;;;;23.67;21.25;;;11.70;99.90;;;;;;5032089;28;20205;-77
2022/03/27 04:59:29;;;;;;;22.73;20.30;;;11.70;99.90;;;;;;5030256;28;20218;-77
2022/03/27 05:01:58;;;;;;;23.30;20.75;;;11.60;99.90;;;;;;5031551;28;20210;-77
2022/03/27 05:04:25;;;;;;;23.60;21.20;;;11.60;99.90;;;;;;5033499;28;20210;-77
2022/03/27 05:06:54;;;;;;;23.63;21.27;;;11.50;99.90;;;;;;5032577;28;20195;-77
2022/03/27 05:09:22;;;;;;;24.20;21.48;;;11.40;99.90;;;;;;5030031;28;20225;-77
2022/03/27 05:11:49;;;;;;;24.88;22.02;;;11.40;99.90;;;;;;5031269;28;20202;-77
2022/03/27 05:14:17;;;;;;;24.80;20.83;;;11.40;99.90;;;;;;5029277;28;20211;-77
2022/03/27 05:16:44;;;;;;;24.42;21.23;;;11.40;99.90;;;;;;5031979;28;20203;-77
2022/03/27 05:19:15;;;;;;;22.27;19.95;;;11.40;99.90;;;;;;5028466;28;20226;-77
2022/03/27 05:21:42;;;;;;;20.67;18.50;;;11.30;99.90;;;;;;5032474;28;20219;-77
2022/03/27 05:24:11;;;;;;;21.97;19.57;;;11.30;99.90;;;;;;5034058;28;20529;-77
2022/03/27 05:26:39;;;;;;;23.73;19.90;;;11.30;99.90;;;;;;5030847;28;20204;-77
2022/03/27 05:29:10;;;;;;;23.07;20.60;;;11.10;99.90;;;;;;5027652;28;20211;-77
2022/03/27 05:31:38;;;;;;;22.50;19.50;;;11.10;99.90;;;;;;5028502;28;20202;-77
2022/03/27 05:34:05;;;;;;;22.10;19.58;;;11.20;99.90;;;;;;5030207;28;20555;-77
2022/03/27 05:36:32;;;;;;;22.53;18.87;;;11.20;99.90;;;;;;5031545;28;20206;-77
2022/03/27 05:39:00;;;;;;;22.33;19.80;;;11.30;99.90;;;;;;5031940;28;20234;-77
2022/03/27 05:41:29;;;;;;;21.30;18.97;;;11.30;99.90;;;;;;5031202;28;20226;-77
2022/03/27 05:43:56;;;;;;;24.03;19.93;;;11.30;99.90;;;;;;5029188;28;20195;-77
2022/03/27 05:46:23;;;;;;;24.37;19.20;;;11.30;99.90;;;;;;5032170;28;20210;-77
2022/03/27 05:48:51;;;;;;;24.17;19.47;;;11.30;99.90;;;;;;5021557;28;20219;-77
2022/03/27 05:51:18;;;;;;;22.83;20.40;;;11.30;99.90;;;;;;5029180;28;20195;-77
2022/03/27 05:53:45;;;;;;;23.27;18.63;;;11.30;99.90;;;;;;5033266;28;20549;-77
2022/03/27 05:56:13;;;;;;;23.10;20.63;;;11.40;99.90;;;;;;5032388;28;20203;-77
2022/03/27 05:58:41;;;;;;;24.17;20.60;;;11.40;99.90;;;;;;5031209;28;20226;-77
2022/03/27 06:01:09;;;;;;;23.35;20.85;;;11.40;99.90;;;;;;5028797;28;20569;-78
2022/03/27 06:03:36;;;;;;;25.87;20.30;;;11.10;99.90;;;;;;5030605;28;20563;-77
2022/03/27 06:06:05;;;;;;;23.83;21.17;;;11.20;99.90;;;;;;5030228;28;20214;-77
2022/03/27 06:08:33;;;;;;;23.83;20.10;;;11.40;99.90;;;;;;5031749;28;20223;-77
2022/03/27 06:11:00;;;;;;;23.23;20.73;;;11.40;99.90;;;;;;5035345;28;20194;-77
2022/03/27 06:13:28;;;;;;;24.08;20.05;;;11.40;99.90;;;;;;5020034;28;20199;-77
2022/03/27 06:15:57;;;;;;;22.40;20.08;;;11.30;99.90;;;;;;5035329;28;20210;-77
2022/03/27 06:18:24;;;;;;;21.63;19.17;;;11.40;99.90;;;;;;5030612;28;20210;-77
2022/03/27 06:20:51;;;;;;;23.15;20.60;;;11.40;99.90;;;;;;5030845;28;20207;-77
2022/03/27 06:23:19;;;;;;;20.88;18.55;;;11.40;99.90;;;;;;5024571;28;20207;-77
2022/03/27 06:25:52;;;;;;;21.60;18.70;;;11.40;99.90;;;;;;5023199;28;20195;-77
2022/03/27 06:28:20;;;;;;;21.13;18.52;;;11.30;99.90;;;;;;5026101;28;20578;-77
2022/03/27 06:30:47;;;;;;;21.55;19.20;;;11.30;99.90;;;;;;5028817;28;20195;-77
2022/03/27 06:33:16;;;;;;;21.77;19.13;;;11.30;99.90;;;;;;5025617;28;20223;-77
2022/03/27 06:35:43;;;;;;;20.60;17.80;;;11.20;99.90;;;;;;5017682;28;20226;-77
2022/03/27 06:38:11;;;;;;;21.47;18.50;;;11.30;99.90;;;;;;5028848;28;20700;-77
2022/03/27 06:40:38;;;;;;;20.40;17.07;;;11.30;99.90;;;;;;5031575;28;20198;-77
2022/03/27 06:43:07;;;;;;;21.13;18.00;;;11.40;99.90;;;;;;5029633;28;20241;-77
2022/03/27 06:45:34;;;;;;;19.90;17.80;;;11.40;99.90;;;;;;5029205;28;20229;-77
2022/03/27 06:48:02;;;;;;;18.60;16.67;;;11.40;99.90;;;;;;5030671;28;20207;-77
2022/03/27 06:50:31;;;;;;;20.48;17.15;;;11.50;99.90;;;;;;5026738;28;20238;-77
2022/03/27 06:52:58;;;;;;;19.87;17.77;;;11.30;99.90;;;;;;5048911;28;20199;-77
2022/03/27 06:55:28;;;;;;;20.97;18.60;;;11.40;99.90;;;;;;5038316;28;20203;-77
2022/03/27 06:57:55;;;;;;;23.20;19.07;;;11.20;99.90;;;;;;5028050;28;20210;-77
2022/03/27 07:03:10;;;;;;;20.90;18.67;;;10.80;99.90;;;;;;5021506;28;20223;-77
2022/03/27 07:05:40;;;;;;;24.00;18.77;;;11.10;99.90;;;;;;5029519;28;20202;-78
2022/03/27 07:08:09;;;;;;;24.40;19.27;;;11.10;99.90;;;;;;5031348;28;20195;-77
2022/03/27 07:10:37;;;;;;;23.10;19.73;;;11.10;99.90;;;;;;5029768;28;20679;-77
2022/03/27 07:13:05;;;;;;;20.97;17.93;;;11.20;99.90;;;;;;5026445;28;20191;-77
2022/03/27 07:15:33;;;;;;;20.87;18.50;;;11.20;99.90;;;;;;5018839;28;20195;-77
2022/03/27 07:18:00;;;;;;;22.27;19.73;;;11.40;99.90;;;;;;5024428;28;20668;-77
2022/03/27 07:20:30;;;;;;;21.20;18.55;;;11.30;99.90;;;;;;5027195;28;20226;-78
2022/03/27 07:23:01;;;;;;;22.47;19.13;;;11.40;99.90;;;;;;5032165;28;20223;-78
2022/03/27 07:25:30;;;;;;;21.67;19.20;;;11.30;99.90;;;;;;5031805;28;20572;-78
2022/03/27 07:27:57;;;;;;;20.75;18.45;;;11.30;99.90;;;;;;5032187;28;20541;-77
2022/03/27 07:30:25;;;;;;;21.17;18.70;;;11.00;99.90;;;;;;5049033;28;20238;-78
2022/03/27 07:32:53;;;;;;;24.02;18.50;;;10.90;99.90;;;;;;5034863;28;20213;-77
2022/03/27 07:35:21;;;;;;;21.67;18.83;;;11.10;99.90;;;;;;5023853;28;20687;-77
2022/03/27 07:37:49;;;;;;;22.50;19.33;;;11.10;99.90;;;;;;5023129;28;20199;-78
2022/03/27 07:40:19;;;;;;;25.90;20.83;;;11.10;99.90;;;;;;5031353;28;20237;-77
2022/03/27 07:42:49;;;;;;;26.45;20.67;;;11.20;99.90;;;;;;5025715;28;20214;-77
2022/03/27 07:45:19;;;;;;;29.88;22.52;;;11.00;99.90;;;;;;5021849;28;20210;-77
2022/03/27 07:47:47;;;;;;;27.80;22.02;;;11.10;99.90;;;;;;5024342;28;20202;-77
2022/03/27 07:50:15;;;;;;;28.75;22.25;;;11.30;99.90;;;;;;5026681;28;20222;-77
2022/03/27 07:52:43;;;;;;;30.58;23.63;;;11.30;99.90;;;;;;5027250;28;20203;-77
2022/03/27 07:55:12;;;;;;;35.38;24.60;;;11.30;99.90;;;;;;5021016;28;20199;-77
2022/03/27 07:57:42;;;;;;;32.80;25.33;;;11.40;99.90;;;;;;5031177;28;20207;-77
2022/03/27 08:00:11;;;;;;;41.03;26.88;;;11.40;99.90;;;;;;5025330;28;20241;-77
2022/03/27 08:02:42;;;;;;;41.20;27.67;;;11.50;99.90;;;;;;5028662;28;20301;-77
2022/03/27 08:05:11;;;;;;;42.85;29.00;;;11.50;99.90;;;;;;5023480;28;20203;-78
2022/03/27 08:07:38;;;;;;;41.42;28.27;;;11.50;99.90;;;;;;5027739;28;20203;-78
2022/03/27 08:10:07;;;;;;;41.95;29.25;;;11.50;99.90;;;;;;5028327;28;20223;-78
2022/03/27 08:12:36;;;;;;;38.67;27.97;;;11.40;99.90;;;;;;5050960;28;20209;-78
2022/03/27 08:15:06;;;;;;;36.42;26.83;;;11.80;99.90;;;;;;5035336;28;20217;-78
2022/03/27 08:17:33;;;;;;;38.17;26.52;;;11.90;99.90;;;;;;5030976;28;20203;-79
2022/03/27 08:20:01;;;;;;;41.17;27.73;;;11.60;99.90;;;;;;5034950;28;20222;-78
2022/03/27 08:22:28;;;;;;;39.90;28.02;;;11.50;99.90;;;;;;5031265;28;20226;-79
2022/03/27 08:24:56;;;;;;;37.65;27.83;;;11.70;99.90;;;;;;5029129;28;20203;-79
2022/03/27 08:27:22;;;;;;;37.65;26.65;;;11.70;99.90;;;;;;5032026;28;20213;-79
2022/03/27 08:29:50;;;;;;;33.90;24.52;;;11.80;99.90;;;;;;5032855;28;20215;-79
2022/03/27 08:32:19;;;;;;;37.00;26.00;;;12.00;99.90;;;;;;5028335;28;20662;-79
2022/03/27 08:34:51;;;;;;;35.97;26.92;;;11.90;99.90;;;;;;5028801;28;20199;-79
2022/03/27 08:37:19;;;;;;;34.75;26.02;;;12.00;99.90;;;;;;5025736;28;20206;-78
2022/03/27 08:39:46;;;;;;;37.00;27.02;;;12.00;99.90;;;;;;5022654;28;20235;-78
2022/03/27 08:42:16;;;;;;;40.25;27.50;;;12.20;99.90;;;;;;5024057;28;20225;-78
2022/03/27 08:44:43;;;;;;;44.42;30.27;;;12.30;99.90;;;;;;5023517;28;20206;-78
2022/03/27 08:47:16;;;;;;;40.63;28.50;;;12.30;99.90;;;;;;5026187;28;20205;-78
2022/03/27 08:49:53;;;;;;;38.05;27.17;;;12.10;99.90;;;;;;5030846;28;20218;-77
2022/03/27 08:52:42;;;;;;;38.58;27.48;;;12.00;99.90;;;;;;5040801;28;20190;-78
2022/03/27 08:55:17;;;;;;;35.83;25.33;;;11.90;99.90;;;;;;5024153;28;20206;-78
2022/03/27 08:57:54;;;;;;;34.47;24.45;;;12.00;99.90;;;;;;5044528;28;20210;-78
2022/03/27 09:00:22;;;;;;;33.50;25.48;;;12.10;99.90;;;;;;5010284;28;20224;-78
2022/03/27 09:02:51;;;;;;;29.30;23.02;;;12.10;99.90;;;;;;5028274;28;20588;-78
2022/03/27 09:05:22;;;;;;;30.30;23.05;;;12.20;99.90;;;;;;5028178;28;20217;-77
2022/03/27 09:07:50;;;;;;;27.75;22.13;;;11.80;99.90;;;;;;5027609;28;20203;-78
2022/03/27 09:10:18;;;;;;;30.25;21.90;;;12.20;99.90;;;;;;5031415;28;20598;-77
2022/03/27 09:12:46;;;;;;;28.90;22.38;;;12.30;99.90;;;;;;5029138;28;20195;-77
2022/03/27 09:15:16;;;;;;;26.30;21.25;;;12.40;99.90;;;;;;5030244;28;20210;-77
2022/03/27 09:17:58;;;;;;;26.48;20.33;;;12.60;99.90;;;;;;5028908;28;20203;-78
2022/03/27 09:20:38;;;;;;;27.58;20.70;;;12.20;99.90;;;;;;5029421;28;20222;-78
2022/03/27 09:23:14;;;;;;;28.95;21.20;;;12.20;99.90;;;;;;5053652;28;20672;-78
2022/03/27 09:25:46;;;;;;;25.30;20.65;;;12.70;99.90;;;;;;5038489;28;20198;-78
2022/03/27 09:28:22;;;;;;;24.50;20.42;;;12.50;99.90;;;;;;5029830;28;20210;-77
2022/03/27 09:30:50;;;;;;;25.27;19.80;;;12.50;99.90;;;;;;5026060;28;20206;-78
2022/03/27 09:33:38;;;;;;;26.25;20.63;;;12.90;99.90;;;;;;5031577;28;20209;-78
2022/03/27 09:36:09;;;;;;;25.98;21.17;;;12.80;99.90;;;;;;5036600;28;20199;-77
2022/03/27 09:38:38;;;;;;;24.58;19.88;;;13.10;99.90;;;;;;5018633;28;20723;-77
2022/03/27 09:41:07;;;;;;;29.55;21.33;;;13.10;99.90;;;;;;5042881;28;20639;-77
2022/03/27 09:43:35;;;;;;;25.45;19.65;;;12.70;99.90;;;;;;5028657;28;20804;-77
2022/03/27 09:46:04;;;;;;;22.67;18.95;;;12.70;99.90;;;;;;5028768;28;20202;-76
2022/03/27 09:48:32;;;;;;;27.55;20.38;;;12.80;99.90;;;;;;5028376;28;20199;-76
2022/03/27 09:51:01;;;;;;;21.65;18.00;;;12.80;99.90;;;;;;5029688;28;20214;-76
2022/03/27 09:53:31;;;;;;;22.33;18.95;;;13.10;99.90;;;;;;5023630;28;20204;-77
2022/03/27 09:56:14;;;;;;;22.63;18.98;;;13.60;99.90;;;;;;5041447;28;20202;-75
2022/03/27 09:58:44;;;;;;;22.40;17.50;;;13.40;99.90;;;;;;5020502;28;20229;-76
2022/03/27 10:01:14;;;;;;;26.95;19.98;;;14.10;99.90;;;;;;5021096;28;20203;-76
2022/03/27 10:04:08;;;;;;;24.73;18.83;;;13.60;99.90;;;;;;5012153;28;20211;-76
2022/03/27 10:06:39;;;;;;;25.42;20.58;;;14.20;99.90;;;;;;5009793;28;20206;-77
2022/03/27 10:09:09;;;;;;;27.92;21.33;;;13.90;99.90;;;;;;5023271;28;20226;-76
2022/03/27 10:11:38;;;;;;;23.80;19.83;;;13.50;99.90;;;;;;5028072;28;20198;-76
2022/03/27 10:14:06;;;;;;;26.13;20.73;;;13.40;99.90;;;;;;5020680;28;20203;-76
2022/03/27 10:16:35;;;;;;;27.52;21.15;;;13.40;99.90;;;;;;5027309;28;20210;-76
2022/03/27 10:19:06;;;;;;;24.00;18.95;;;13.70;99.90;;;;;;5029100;28;20218;-76
2022/03/27 10:21:35;;;;;;;25.58;19.95;;;13.60;99.90;;;;;;5028413;28;20203;-76
2022/03/27 10:24:14;;;;;;;26.63;19.58;;;13.80;99.90;;;;;;5033449;28;20755;-76
2022/03/27 10:26:43;;;;;;;24.15;18.95;;;14.20;99.90;;;;;;5022813;28;20199;-76
2022/03/27 10:29:12;;;;;;;24.70;19.42;;;14.00;99.90;;;;;;5025895;28;20237;-77
2022/03/27 10:31:40;;;;;;;21.63;18.52;;;14.30;99.90;;;;;;5025615;28;20569;-76
2022/03/27 10:34:11;;;;;;;23.05;18.70;;;14.10;99.90;;;;;;5040587;28;20221;-76
2022/03/27 10:36:47;;;;;;;23.70;18.50;;;14.00;99.90;;;;;;5025680;28;20195;-75
2022/03/27 10:39:24;;;;;;;25.33;18.92;;;14.30;99.90;;;;;;5025972;28;20241;-76
2022/03/27 10:42:02;;;;;;;25.38;18.67;;;14.50;99.90;;;;;;5021812;28;20195;-77
2022/03/27 10:44:38;;;;;;;25.60;19.13;;;14.50;99.90;;;;;;5025432;28;20218;-76
2022/03/27 10:47:16;;;;;;;22.10;18.38;;;14.70;99.90;;;;;;5029556;28;20195;-77
2022/03/27 10:50:13;;;;;;;27.30;19.73;;;14.70;99.90;;;;;;5027876;28;20727;-77
2022/03/27 10:53:07;;;;;;;21.85;17.90;;;15.30;99.90;;;;;;5030751;28;20198;-76
2022/03/27 10:55:43;;;;;;;22.38;18.30;;;15.00;99.90;;;;;;5038511;28;20210;-76
2022/03/27 10:58:31;;;;;;;22.88;18.00;;;14.60;99.90;;;;;;5035121;28;20199;-76
2022/03/27 11:00:59;;;;;;;20.08;16.80;;;14.60;99.90;;;;;;5028493;28;20214;-76
2022/03/27 11:03:51;;;;;;;21.75;18.15;;;15.10;99.90;;;;;;5029639;28;20226;-76
2022/03/27 11:06:23;;;;;;;20.98;17.75;;;15.10;99.90;;;;;;5031222;28;20202;-75
2022/03/27 11:08:51;;;;;;;20.85;17.95;;;15.20;99.90;;;;;;5030089;28;20211;-76
2022/03/27 11:11:54;;;;;;;22.48;17.58;;;15.30;99.90;;;;;;5028468;28;20195;-76
2022/03/27 11:14:54;;;;;;;21.17;17.90;;;15.20;99.90;;;;;;4988506;28;20546;-76
2022/03/27 11:17:40;;;;;;;19.23;15.95;;;15.70;99.90;;;;;;5039865;28;20210;-76
2022/03/27 11:20:09;;;;;;;18.08;15.57;;;16.00;99.10;;;;;;5022634;28;20226;-76
2022/03/27 11:22:52;;;;;;;19.17;16.58;;;16.30;98.00;;;;;;5026121;28;20606;-76
2022/03/27 11:25:46;;;;;;;19.20;16.08;;;16.60;96.90;;;;;;5028684;28;20230;-75
2022/03/27 11:28:15;;;;;;;18.58;16.20;;;16.50;97.30;;;;;;5020742;28;20211;-76
2022/03/27 11:31:29;;;;;;;18.40;16.10;;;16.40;97.40;;;;;;5020435;28;20210;-75
2022/03/27 11:34:17;;;;;;;19.88;16.27;;;16.40;97.70;;;;;;4964772;28;20634;-75
2022/03/27 11:36:47;;;;;;;17.73;15.88;;;16.70;96.80;;;;;;5019499;28;20202;-75
2022/03/27 11:39:32;;;;;;;16.25;14.55;;;16.80;96.40;;;;;;5039089;28;20234;-75
2022/03/27 11:42:24;;;;;;;17.02;15.10;;;16.80;96.40;;;;;;5025242;28;20585;-75
2022/03/27 11:47:47;;;;;;;14.55;13.00;;;17.00;95.50;;;;;;5146210;27;20683;-77
2022/03/27 11:50:23;;;;;;;14.15;12.68;;;16.70;95.50;;;;;;5130071;27;20215;-77
2022/03/27 11:52:50;;;;;;;14.73;13.15;;;17.30;94.20;;;;;;5122067;27;20202;-77
2022/03/27 11:55:19;;;;;;;15.60;13.02;;;16.80;94.60;;;;;;5116914;27;20195;-77
2022/03/27 11:57:48;;;;;;;14.95;12.98;;;17.00;95.10;;;;;;5128148;27;20560;-77
2022/03/27 12:00:28;;;;;;;16.42;13.43;;;17.20;94.60;;;;;;5144100;27;20222;-77
2022/03/27 12:02:57;;;;;;;12.55;11.35;;;17.20;94.80;;;;;;5145648;27;20190;-77
2022/03/27 12:05:34;;;;;;;13.30;11.90;;;17.50;94.40;;;;;;5123309;27;20201;-77
2022/03/27 12:08:02;;;;;;;12.60;11.30;;;17.30;93.60;;;;;;5143818;27;20203;-77
2022/03/27 12:10:54;;;;;;;10.43;9.32;;;17.40;94.30;;;;;;5133070;27;20218;-77
2022/03/27 12:13:21;;;;;;;11.43;10.30;;;17.80;91.50;;;;;;5123233;27;20195;-78
2022/03/27 12:15:51;;;;;;;11.98;10.65;;;17.90;92.00;;;;;;5126411;27;20209;-77
2022/03/27 12:18:30;;;;;;;11.52;10.32;;;17.50;91.30;;;;;;5145960;27;20191;-75
2022/03/27 12:20:59;;;;;;;10.60;9.32;;;17.90;92.10;;;;;;5143920;27;20202;-76
2022/03/27 12:23:29;;;;;;;11.20;9.95;;;18.20;88.70;;;;;;5132156;27;20199;-76
2022/03/27 12:26:01;;;;;;;11.02;9.27;;;18.00;88.90;;;;;;5141815;27;20215;-76
2022/03/27 12:31:23;;;;;;;11.00;9.85;;;18.50;85.00;;;;;;5130459;27;20187;-76
2022/03/27 12:34:00;;;;;;;12.18;10.98;;;18.70;83.00;;;;;;5127707;27;20199;-75
2022/03/27 12:36:27;;;;;;;11.68;10.05;;;18.20;85.90;;;;;;5129049;27;20648;-75
2022/03/27 12:38:54;;;;;;;13.20;11.30;;;17.70;85.50;;;;;;5144395;27;20211;-76
2022/03/27 12:41:49;;;;;;;12.93;11.63;;;18.50;84.50;;;;;;5152801;27;20687;-76
2022/03/27 12:44:17;;;;;;;13.43;12.02;;;19.10;84.30;;;;;;5131170;27;20203;-76
2022/03/27 12:46:50;;;;;;;14.02;12.52;;;19.00;85.30;;;;;;5129885;27;20698;-76
2022/03/27 12:49:19;;;;;;;12.25;11.05;;;19.40;81.90;;;;;;5151386;27;20215;-76
2022/03/27 12:51:57;;;;;;;13.50;11.98;;;19.70;79.10;;;;;;5131728;27;20202;-76
2022/03/27 12:54:24;;;;;;;13.85;11.75;;;20.30;78.80;;;;;;5125314;27;20198;-76